Time;durP1;ratioP1;P1;durP2;ratioP2;P2;SDS_P1;SDS_P2;PMS_P1;PMS_P2;Temp;Humidity;BMP_temperature;BMP_pressure;BME280_temperature;BME280_humidity;BME280_pressure;Samples;Min_cycle;Max_cycle;Signal;HPM_P1;HPM_P2
2022/09/13 00:01:18;;;;;;;14.68;11.57;;;;;;;21.54;55.89;100927.81;4930953;28;114361;-65
2022/09/13 00:03:45;;;;;;;14.48;11.05;;;;;;;21.53;55.97;100926.13;4925446;28;124021;-65
2022/09/13 00:06:19;;;;;;;17.13;12.65;;;;;;;21.53;56.06;100931.53;4924536;28;123807;-65
2022/09/13 00:08:47;;;;;;;16.50;13.40;;;;;;;21.52;55.85;100929.78;4922511;28;114840;-65
2022/09/13 00:11:21;;;;;;;16.77;12.98;;;;;;;21.51;56.06;100928.13;4929119;28;114832;-65
2022/09/13 00:13:48;;;;;;;17.00;13.25;;;;;;;21.51;56.11;100922.72;4928198;28;124662;-65
2022/09/13 00:16:18;;;;;;;17.35;13.40;;;;;;;21.51;56.14;100928.13;4927417;28;124280;-65
2022/09/13 00:18:45;;;;;;;18.45;14.20;;;;;;;21.51;56.17;100928.13;4925991;28;114968;-65
2022/09/13 00:21:15;;;;;;;20.35;14.45;;;;;;;21.52;56.19;100919.00;4926533;28;113228;-65
2022/09/13 00:23:44;;;;;;;15.90;14.00;;;;;;;21.54;56.03;100917.03;4923697;28;122957;-65
2022/09/13 00:26:14;;;;;;;20.50;14.30;;;;;;;21.54;56.00;100917.03;4926796;28;124544;-65
2022/09/13 00:28:44;;;;;;;17.25;13.15;;;;;;;21.55;55.84;100907.13;4916067;28;113294;-65
2022/09/13 00:31:11;;;;;;;16.15;13.98;;;;;;;21.55;56.02;100907.97;4924605;28;114797;-65
2022/09/13 00:33:38;;;;;;;16.83;13.27;;;;;;;21.57;56.05;100915.94;4927311;28;125447;-65
2022/09/13 00:36:08;;;;;;;17.10;13.38;;;;;;;21.55;55.99;100907.13;4925314;28;123745;-65
2022/09/13 00:38:39;;;;;;;17.17;13.13;;;;;;;21.55;55.78;100904.44;4927608;28;114107;-65
2022/09/13 00:41:10;;;;;;;16.90;12.13;;;;;;;21.54;55.89;100900.88;4927946;28;114820;-65
2022/09/13 00:43:44;;;;;;;15.48;12.05;;;;;;;21.54;55.78;100898.16;4926345;28;124402;-66
2022/09/13 00:46:35;;;;;;;14.35;12.57;;;;;;;21.53;55.70;100887.53;4921883;28;124562;-65
2022/09/13 00:49:20;;;;;;;14.55;11.82;;;;;;;21.51;55.60;100893.06;4920622;28;119378;-65
2022/09/13 00:51:58;;;;;;;15.32;11.73;;;;;;;21.50;55.73;100883.28;4924828;28;117961;-66
2022/09/13 00:54:32;;;;;;;16.63;11.63;;;;;;;21.51;55.68;100878.72;4908723;28;123585;-65
2022/09/13 00:57:03;;;;;;;14.77;11.82;;;;;;;21.51;55.65;100879.59;4924572;28;124708;-66
2022/09/13 00:59:41;;;;;;;15.00;11.73;;;;;;;21.51;55.47;100879.59;4918892;28;122194;-65
2022/09/13 01:02:09;;;;;;;14.05;11.35;;;;;;;21.53;55.36;100871.34;4920109;28;121382;-65
2022/09/13 01:04:37;;;;;;;15.80;11.07;;;;;;;21.53;55.35;100872.22;4920374;28;124041;-65
2022/09/13 01:07:11;;;;;;;17.05;10.55;;;;;;;21.53;55.33;100864.13;4924470;28;123751;-65
2022/09/13 01:09:43;;;;;;;16.42;11.20;;;;;;;21.55;55.25;100870.25;4919562;28;119746;-64
2022/09/13 01:12:30;;;;;;;14.52;11.15;;;;;;;21.55;55.11;100864.00;4926474;28;119086;-66
2022/09/13 01:15:00;;;;;;;15.13;10.38;;;;;;;21.56;55.04;100871.94;4928709;28;124345;-65
2022/09/13 01:17:30;;;;;;;14.50;10.82;;;;;;;21.57;55.06;100880.88;4926483;28;124272;-66
2022/09/13 01:19:59;;;;;;;12.60;10.30;;;;;;;21.56;55.06;100866.53;4926308;28;119848;-66
2022/09/13 01:23:10;;;;;;;14.68;11.02;;;;;;;21.57;54.98;100873.63;4922765;28;119241;-64
2022/09/13 01:25:52;;;;;;;12.93;10.05;;;;;;;21.57;54.86;100884.44;4895262;28;124258;-65
2022/09/13 01:28:37;;;;;;;13.88;10.40;;;;;;;21.56;54.81;100882.69;4919324;28;123889;-64
2022/09/13 01:31:26;;;;;;;13.68;10.82;;;;;;;21.57;54.87;100879.03;4931369;28;119292;-64
2022/09/13 01:34:18;;;;;;;15.48;9.88;;;;;;;21.56;54.75;100871.94;4918551;28;118946;-64
2022/09/13 01:36:57;;;;;;;11.88;10.18;;;;;;;21.57;54.72;100872.81;4917476;28;124786;-64
2022/09/13 01:39:52;;;;;;;13.52;10.45;;;;;;;21.59;54.70;100870.81;4916792;28;124921;-64
2022/09/13 01:42:59;;;;;;;12.68;9.90;;;;;;;21.60;54.58;100871.66;4929343;28;120068;-64
2022/09/13 01:45:55;;;;;;;14.02;9.55;;;;;;;21.61;54.57;100873.38;4913379;28;118888;-64
2022/09/13 01:48:28;;;;;;;11.65;9.10;;;;;;;21.61;54.51;100867.97;4929565;28;124038;-64
2022/09/13 01:51:04;;;;;;;12.77;9.63;;;;;;;21.61;54.51;100863.44;4916162;28;124862;-64
2022/09/13 01:53:58;;;;;;;13.88;9.93;;;;;;;21.61;54.55;100868.81;4912676;28;120758;-64
2022/09/13 01:56:32;;;;;;;13.45;9.65;;;;;;;21.63;54.58;100866.00;4913716;28;118906;-64
2022/09/13 01:59:13;;;;;;;12.07;9.63;;;;;;;21.63;54.45;100871.38;4907049;28;124221;-64
2022/09/13 02:01:51;;;;;;;11.93;9.23;;;;;;;21.64;54.40;100873.06;4913656;28;123977;-64
2022/09/13 02:04:26;;;;;;;11.52;9.35;;;;;;;21.64;54.48;100868.53;4918626;28;119360;-65
2022/09/13 02:07:04;;;;;;;12.00;9.52;;;;;;;21.66;54.41;100871.09;4912187;28;119316;-64
2022/09/13 02:09:37;;;;;;;10.25;9.10;;;;;;;21.67;54.48;100867.41;4910047;28;124537;-64
2022/09/13 02:12:14;;;;;;;12.57;9.88;;;;;;;21.67;54.38;100862.88;4915431;28;123273;-65
2022/09/13 02:14:47;;;;;;;12.63;9.60;;;;;;;21.69;54.38;100865.44;4917263;28;119663;-65
2022/09/13 02:17:20;;;;;;;12.20;9.20;;;;;;;21.69;54.39;100868.13;4924635;28;118670;-65
2022/09/13 02:20:00;;;;;;;12.85;9.90;;;;;;;21.70;54.60;100867.09;4917602;28;124493;-65
2022/09/13 02:22:33;;;;;;;11.10;8.77;;;;;;;21.68;54.32;100867.28;4911778;28;122909;-65
2022/09/13 02:25:05;;;;;;;11.00;9.18;;;;;;;21.69;54.34;100865.44;4909607;28;119316;-64
2022/09/13 02:27:35;;;;;;;13.10;8.95;;;;;;;21.70;54.13;100872.50;4911863;28;119041;-65
2022/09/13 02:30:06;;;;;;;12.45;9.80;;;;;;;21.70;54.32;100867.97;4911128;28;124813;-65
2022/09/13 02:32:41;;;;;;;13.82;9.32;;;;;;;21.70;54.43;100862.59;4912725;28;124214;-65
2022/09/13 02:35:41;;;;;;;12.63;9.10;;;;;;;21.71;54.30;100858.03;4914836;28;119647;-65
2022/09/13 02:38:22;;;;;;;10.55;8.85;;;;;;;21.71;54.46;100858.03;4912883;28;119469;-65
2022/09/13 02:40:57;;;;;;;12.52;9.10;;;;;;;21.72;54.29;100859.75;4915644;28;123649;-65
2022/09/13 02:43:34;;;;;;;12.73;9.45;;;;;;;21.71;54.33;100858.03;4910422;28;124238;-65
2022/09/13 02:46:23;;;;;;;13.32;8.93;;;;;;;21.71;54.37;100858.03;4929146;28;119101;-64
2022/09/13 02:49:23;;;;;;;11.45;9.10;;;;;;;21.69;54.44;100854.66;4918150;28;119986;-64
2022/09/13 02:51:51;;;;;;;11.35;8.73;;;;;;;21.67;54.41;100862.03;4922014;28;123320;-64
2022/09/13 02:54:23;;;;;;;12.18;8.98;;;;;;;21.65;54.44;100864.00;4913824;28;125699;-65
2022/09/13 02:56:58;;;;;;;12.35;8.73;;;;;;;21.64;54.54;100873.06;4911794;28;118318;-65
2022/09/13 02:59:26;;;;;;;;;;;;;;;21.60;54.49;100872.50;4914279;28;119011;-66
2022/09/13 03:02:02;;;;;;;10.00;8.32;;;;;;;21.62;54.46;100877.75;4909334;28;125722;-65
2022/09/13 03:04:31;;;;;;;11.27;8.50;;;;;;;21.62;54.43;100875.06;4913322;28;124267;-65
2022/09/13 03:06:59;;;;;;;11.18;8.30;;;;;;;21.62;54.51;100880.44;4913916;28;119284;-66
2022/09/13 03:09:27;;;;;;;11.55;8.38;;;;;;;21.63;54.65;100882.16;4914318;28;118805;-65
2022/09/13 03:12:17;;;;;;;10.88;8.65;;;;;;;21.62;54.80;100880.44;4914587;28;124132;-65
2022/09/13 03:15:12;;;;;;;10.98;8.23;;;;;;;21.61;54.70;100885.00;4914740;28;123905;-65
2022/09/13 03:18:05;;;;;;;11.00;8.75;;;;;;;21.61;54.78;100867.97;4912035;28;119676;-64
2022/09/13 03:21:10;;;;;;;12.20;8.27;;;;;;;21.60;54.84;100882.44;4909227;28;117999;-65
2022/09/13 03:23:49;;;;;;;11.57;8.70;;;;;;;21.58;54.98;100874.50;4909292;28;124057;-65
2022/09/13 03:26:30;;;;;;;11.00;8.68;;;;;;;21.56;55.04;100874.63;4914106;28;124435;-65
2022/09/13 03:29:13;;;;;;;9.95;8.32;;;;;;;21.54;55.06;100879.31;4912366;28;120494;-65
2022/09/13 03:31:55;;;;;;;9.85;8.32;;;;;;;21.53;55.01;100872.22;4913373;28;118873;-65
2022/09/13 03:34:53;;;;;;;10.18;8.07;;;;;;;21.52;55.20;100875.91;4910424;28;123964;-65
2022/09/13 03:37:31;;;;;;;10.95;8.65;;;;;;;21.52;55.14;100858.88;4903807;28;123878;-65
2022/09/13 03:40:07;;;;;;;11.27;8.75;;;;;;;21.53;55.28;100866.84;4912663;28;120995;-65
2022/09/13 03:42:45;;;;;;;10.85;8.20;;;;;;;21.52;55.30;100859.72;4916113;28;119859;-65
2022/09/13 03:45:15;;;;;;;10.45;8.98;;;;;;;21.51;55.37;100860.75;4914962;28;124676;-66
2022/09/13 03:47:47;;;;;;;10.75;8.73;;;;;;;21.52;55.38;100870.50;4915664;28;125519;-65
2022/09/13 03:50:19;;;;;;;9.88;8.35;;;;;;;21.49;55.39;100860.03;4914269;28;119215;-66
2022/09/13 03:52:52;;;;;;;10.48;8.55;;;;;;;21.48;55.37;100869.09;4927469;28;118988;-66
2022/09/13 03:55:20;;;;;;;11.85;7.60;;;;;;;21.47;55.51;100856.59;4915943;28;123979;-66
2022/09/13 03:57:47;;;;;;;11.98;8.30;;;;;;;21.46;55.40;100854.91;4910694;28;124069;-66
2022/09/13 04:00:17;;;;;;;9.50;8.38;;;;;;;21.46;55.49;100854.06;4931578;28;118166;-66
2022/09/13 04:02:44;;;;;;;9.40;8.27;;;;;;;21.45;55.52;100858.56;4911258;28;118993;-66
2022/09/13 04:05:11;;;;;;;11.43;8.40;;;;;;;21.43;55.60;100849.75;4917174;28;124538;-66
2022/09/13 04:07:38;;;;;;;11.52;8.15;;;;;;;21.43;55.57;100865.91;4921672;28;123965;-66
2022/09/13 04:10:06;;;;;;;13.65;8.30;;;;;;;21.42;55.47;100864.22;4910362;28;119056;-66
2022/09/13 04:12:40;;;;;;;10.50;8.18;;;;;;;21.42;55.52;100869.63;4913281;28;118847;-66
2022/09/13 04:15:07;;;;;;;11.63;8.02;;;;;;;21.40;55.33;100866.22;4914637;28;124495;-65
2022/09/13 04:17:35;;;;;;;11.25;8.00;;;;;;;21.39;55.54;100880.66;4912508;28;124687;-65
2022/09/13 04:20:03;;;;;;;9.68;7.53;;;;;;;21.36;55.46;100881.81;4912394;28;118658;-65
2022/09/13 04:22:30;;;;;;;10.95;8.07;;;;;;;21.36;55.40;100886.31;4912242;28;118065;-65
2022/09/13 04:24:57;;;;;;;10.32;8.13;;;;;;;21.33;55.53;100881.22;4914416;28;123985;-65
2022/09/13 04:27:28;;;;;;;10.30;8.60;;;;;;;21.33;55.53;100881.22;4909877;28;123005;-65
2022/09/13 04:29:55;;;;;;;11.75;8.75;;;;;;;21.31;55.58;100893.97;4909617;28;120565;-65
2022/09/13 04:32:23;;;;;;;11.23;8.40;;;;;;;21.29;55.63;100896.81;4913876;28;119814;-65
2022/09/13 04:34:50;;;;;;;13.73;8.55;;;;;;;21.27;55.78;100897.94;4914171;28;124153;-65
2022/09/13 04:37:17;;;;;;;10.32;8.50;;;;;;;21.25;55.73;100894.50;4918186;28;124197;-65
2022/09/13 04:39:44;;;;;;;13.43;8.63;;;;;;;21.25;55.93;100899.91;4916801;28;118304;-64
2022/09/13 04:42:12;;;;;;;9.25;8.18;;;;;;;21.22;55.97;100900.19;4917338;28;119034;-65
2022/09/13 04:44:39;;;;;;;11.90;8.60;;;;;;;21.20;56.17;100898.47;4916259;28;124452;-65
2022/09/13 04:47:07;;;;;;;12.52;8.45;;;;;;;21.19;56.22;100902.19;4910285;28;123748;-65
2022/09/13 04:49:34;;;;;;;10.10;8.52;;;;;;;21.17;56.21;100909.53;4919634;28;119143;-65
2022/09/13 04:52:01;;;;;;;10.80;8.35;;;;;;;21.16;56.22;100899.75;4912091;28;119149;-65
2022/09/13 04:54:28;;;;;;;11.40;8.05;;;;;;;21.17;56.04;100909.53;4920442;28;124559;-65
2022/09/13 04:56:56;;;;;;;10.77;8.30;;;;;;;21.16;56.21;100907.81;4914525;28;124402;-64
2022/09/13 04:59:23;;;;;;;10.07;8.57;;;;;;;21.16;56.09;100902.44;4914099;28;119502;-65
2022/09/13 05:01:50;;;;;;;11.38;7.97;;;;;;;21.16;56.17;100902.44;4916097;28;119138;-64
2022/09/13 05:04:17;;;;;;;10.57;8.35;;;;;;;21.17;56.29;100893.38;4911852;28;124429;-64
2022/09/13 05:06:46;;;;;;;13.93;8.13;;;;;;;21.17;56.25;100909.53;4914552;28;123677;-65
2022/09/13 05:09:14;;;;;;;9.30;7.97;;;;;;;21.16;56.43;100902.44;4914879;28;119075;-65
2022/09/13 05:11:42;;;;;;;11.45;8.05;;;;;;;21.16;56.41;100907.81;4919239;28;118913;-65
2022/09/13 05:14:10;;;;;;;10.50;8.65;;;;;;;21.17;56.29;100914.06;4923693;28;124431;-65
2022/09/13 05:16:37;;;;;;;14.88;9.30;;;;;;;21.17;56.50;100903.28;4920979;28;125508;-65
2022/09/13 05:19:04;;;;;;;16.73;8.40;;;;;;;21.16;56.51;100913.22;4913427;28;120038;-65
2022/09/13 05:21:32;;;;;;;10.60;8.27;;;;;;;21.16;56.56;100913.22;4925082;28;119985;-65
2022/09/13 05:23:59;;;;;;;12.43;8.63;;;;;;;21.14;56.59;100917.88;4919235;28;125920;-65
2022/09/13 05:26:31;;;;;;;15.20;8.85;;;;;;;21.13;56.70;100921.56;4922728;28;124660;-65
2022/09/13 05:28:59;;;;;;;11.82;9.00;;;;;;;21.13;56.64;100918.84;4916947;28;118238;-65
2022/09/13 05:31:33;;;;;;;11.93;8.82;;;;;;;21.15;56.70;100913.34;4921686;28;117974;-65
2022/09/13 05:34:13;;;;;;;11.97;8.53;;;;;;;21.14;56.88;100904.41;4923806;28;123866;-65
2022/09/13 05:36:40;;;;;;;11.43;8.75;;;;;;;21.16;56.64;100915.91;4917807;28;124176;-64
2022/09/13 05:39:12;;;;;;;11.50;9.23;;;;;;;21.16;56.77;100913.22;4917662;28;119147;-64
2022/09/13 05:42:00;;;;;;;9.93;8.60;;;;;;;21.16;56.94;100913.22;4920863;28;119190;-64
2022/09/13 05:44:27;;;;;;;12.50;8.60;;;;;;;21.18;56.66;100916.63;4915203;28;124016;-65
2022/09/13 05:46:54;;;;;;;11.70;8.82;;;;;;;21.19;56.81;100918.34;4918766;28;124145;-64
2022/09/13 05:49:21;;;;;;;11.07;8.70;;;;;;;21.22;56.74;100921.75;4917042;28;119226;-64
2022/09/13 05:51:48;;;;;;;9.90;8.73;;;;;;;21.24;56.88;100919.75;4921372;28;119234;-65
2022/09/13 05:54:15;;;;;;;13.93;9.15;;;;;;;21.26;56.88;100923.16;4914367;28;124570;-64
2022/09/13 05:56:42;;;;;;;10.95;8.38;;;;;;;21.28;56.80;100921.19;4925474;28;123779;-65
2022/09/13 05:59:12;;;;;;;13.10;8.90;;;;;;;21.27;56.96;100914.13;4924269;28;118431;-65
2022/09/13 06:01:40;;;;;;;16.17;9.43;;;;;;;21.27;56.80;100914.13;4915267;28;117081;-64
2022/09/13 06:04:08;;;;;;;10.68;8.60;;;;;;;21.28;56.76;100913.09;4921723;28;122825;-65
2022/09/13 06:06:35;;;;;;;16.70;9.15;;;;;;;21.29;56.80;100912.97;4919895;28;123786;-65
2022/09/13 06:09:05;;;;;;;13.45;9.40;;;;;;;21.32;56.85;100909.16;4918291;28;120297;-65
2022/09/13 06:11:32;;;;;;;15.70;9.75;;;;;;;21.34;56.85;100915.25;4921952;28;120444;-65
2022/09/13 06:13:59;;;;;;;13.73;9.85;;;;;;;21.37;56.98;100917.69;4912221;28;123828;-64
2022/09/13 06:16:26;;;;;;;11.95;9.45;;;;;;;21.37;56.98;100915.81;4920038;28;124247;-64
2022/09/13 06:18:53;;;;;;;13.55;9.60;;;;;;;21.40;57.06;100914.72;4920929;28;118538;-65
2022/09/13 06:21:22;;;;;;;13.32;8.93;;;;;;;21.44;56.87;100910.78;4916905;28;118698;-64
2022/09/13 06:23:55;;;;;;;13.32;9.63;;;;;;;21.48;56.67;100911.38;4913486;28;124019;-65
2022/09/13 06:26:27;;;;;;;14.80;10.55;;;;;;;21.52;56.98;100920.88;4927601;28;123677;-65
2022/09/13 06:28:56;;;;;;;14.50;10.18;;;;;;;21.55;57.09;100924.16;4920133;28;118836;-65
2022/09/13 06:31:26;;;;;;;14.90;10.43;;;;;;;21.62;57.07;100924.41;4922533;28;118916;-64
2022/09/13 06:33:56;;;;;;;14.20;10.48;;;;;;;21.66;56.95;100925.00;4916395;28;124018;-64
2022/09/13 06:36:24;;;;;;;12.27;10.48;;;;;;;21.72;56.92;100924.47;4912139;28;124337;-64
2022/09/13 06:38:51;;;;;;;15.45;10.95;;;;;;;21.75;56.81;100929.56;4912017;28;119230;-64
2022/09/13 06:41:22;;;;;;;12.68;11.13;;;;;;;21.79;56.86;100925.59;4910377;28;119527;-63
2022/09/13 06:43:58;;;;;;;16.13;11.35;;;;;;;21.84;56.94;100923.31;4914967;28;123885;-63
2022/09/13 06:46:28;;;;;;;13.93;10.75;;;;;;;21.90;57.03;100917.38;4913136;28;124003;-63
2022/09/13 06:48:59;;;;;;;16.08;11.80;;;;;;;21.96;57.05;100922.22;4915834;28;119274;-64
2022/09/13 06:51:28;;;;;;;16.77;11.98;;;;;;;22.05;56.99;100914.25;4929100;28;118141;-64
2022/09/13 06:53:55;;;;;;;17.25;11.68;;;;;;;22.12;56.86;100915.41;4913511;28;124834;-66
2022/09/13 06:56:24;;;;;;;14.60;11.50;;;;;;;22.20;56.77;100912.81;4913295;28;122713;-63
2022/09/13 06:58:58;;;;;;;15.57;12.40;;;;;;;22.29;56.67;100906.59;4910687;28;120430;-63
2022/09/13 07:01:40;;;;;;;14.82;12.15;;;;;;;22.40;56.68;100910.16;4915264;28;119943;-64
2022/09/13 07:04:13;;;;;;;18.13;12.63;;;;;;;22.50;56.78;100902.88;4918793;28;124834;-63
2022/09/13 07:06:43;;;;;;;16.33;12.93;;;;;;;22.62;56.85;100907.13;4912672;28;123582;-63
2022/09/13 07:09:20;;;;;;;17.35;13.45;;;;;;;22.75;56.67;100906.78;4917415;28;119188;-63
2022/09/13 07:11:49;;;;;;;17.48;14.38;;;;;;;22.89;56.27;100913.56;4911799;28;119378;-63
2022/09/13 07:14:19;;;;;;;21.52;14.18;;;;;;;22.96;56.13;100911.97;4913369;28;124557;-63
2022/09/13 07:16:46;;;;;;;18.05;14.05;;;;;;;23.04;55.91;100916.69;4908693;28;123989;-64
2022/09/13 07:19:16;;;;;;;23.38;14.38;;;;;;;23.12;56.05;100909.50;4917761;28;119275;-64
2022/09/13 07:21:43;;;;;;;21.35;14.35;;;;;;;23.23;55.91;100919.28;4919552;28;119407;-64
2022/09/13 07:24:11;;;;;;;17.00;14.20;;;;;;;23.33;55.81;100916.53;4913599;28;124900;-64
2022/09/13 07:26:38;;;;;;;20.08;15.35;;;;;;;23.40;55.77;100912.22;4909272;28;123757;-64
2022/09/13 07:29:08;;;;;;;23.33;14.82;;;;;;;23.49;55.84;100922.13;4921304;28;119779;-64
2022/09/13 07:31:40;;;;;;;21.15;15.50;;;;;;;23.62;55.71;100920.91;4910950;28;119620;-64
2022/09/13 07:34:12;;;;;;;27.60;16.35;;;;;;;23.73;55.46;100928.78;4908680;28;124305;-64
2022/09/13 07:36:39;;;;;;;21.85;16.33;;;;;;;23.84;55.23;100925.06;4916622;28;122939;-64
2022/09/13 07:39:06;;;;;;;22.33;17.58;;;;;;;23.94;55.00;100928.56;4926950;28;119246;-64
2022/09/13 07:41:41;;;;;;;23.08;17.67;;;;;;;24.04;54.62;100920.34;4935946;28;118937;-64
2022/09/13 07:44:09;;;;;;;26.08;18.48;;;;;;;24.16;54.74;100929.09;4924399;28;124472;-64
2022/09/13 07:46:44;;;;;;;25.27;18.50;;;;;;;24.27;54.09;100932.38;4927011;28;122847;-64
2022/09/13 07:49:13;;;;;;;24.73;18.65;;;;;;;24.41;54.36;100927.41;4932145;28;119047;-64
2022/09/13 07:51:42;;;;;;;22.17;16.67;;;;;;;24.54;54.43;100933.28;4924375;28;118952;-64
2022/09/13 07:57:05;;;;;;;24.77;18.48;;;;;;;24.76;53.68;100936.50;4991870;23;98880;-72
2022/09/13 07:59:32;;;;;;;23.63;18.48;;;;;;;24.83;53.53;100934.88;4893135;28;119086;-73
2022/09/13 08:01:59;;;;;;;24.10;18.55;;;;;;;24.90;53.15;100946.75;4890254;28;119352;-73
2022/09/13 08:04:26;;;;;;;23.58;17.10;;;;;;;24.96;53.32;100942.53;4885862;28;123447;-73
2022/09/13 08:06:53;;;;;;;24.38;18.77;;;;;;;25.02;52.92;100947.34;4877093;28;123820;-72
2022/09/13 08:09:20;;;;;;;26.25;18.95;;;;;;;25.08;52.77;100940.41;4877027;28;120090;-73
2022/09/13 08:11:51;;;;;;;23.23;18.88;;;;;;;25.11;52.99;100940.94;4877239;28;119105;-73
2022/09/13 08:14:21;;;;;;;26.23;19.52;;;;;;;25.17;52.96;100944.88;4874394;28;124355;-72
2022/09/13 08:16:48;;;;;;;29.33;19.83;;;;;;;25.24;52.66;100945.94;4891087;28;124095;-72
2022/09/13 08:19:17;;;;;;;27.90;19.92;;;;;;;25.30;52.47;100945.31;4870889;28;119241;-72
2022/09/13 08:21:45;;;;;;;29.20;20.05;;;;;;;25.37;52.53;100946.34;4872949;28;119177;-72
2022/09/13 08:24:14;;;;;;;27.45;19.30;;;;;;;25.44;52.35;100941.94;4880623;28;123938;-72
2022/09/13 08:26:42;;;;;;;29.52;20.70;;;;;;;25.52;52.40;100943.00;4888413;28;123817;-72
2022/09/13 08:29:11;;;;;;;31.80;21.38;;;;;;;25.57;52.19;100940.66;4880583;28;119194;-73
2022/09/13 08:31:38;;;;;;;26.85;19.73;;;;;;;25.63;52.33;100945.41;4884865;28;119740;-73
2022/09/13 08:34:10;;;;;;;25.58;19.70;;;;;;;25.70;52.12;100946.44;4872831;28;124284;-73
2022/09/13 08:36:37;;;;;;;26.48;20.23;;;;;;;25.77;52.31;100952.91;4877556;28;124183;-73
2022/09/13 08:39:04;;;;;;;25.77;19.30;;;;;;;25.82;52.24;100939.69;4881292;28;121156;-72
2022/09/13 08:41:47;;;;;;;28.08;19.80;;;;;;;25.90;52.13;100952.44;4872212;28;119000;-73
2022/09/13 08:44:28;;;;;;;27.35;19.42;;;;;;;25.96;51.98;100953.66;4867624;28;124209;-72
2022/09/13 08:47:27;;;;;;;25.27;18.75;;;;;;;26.01;51.64;100956.69;4868577;28;123519;-72
2022/09/13 08:50:05;;;;;;;25.23;17.70;;;;;;;26.06;51.75;100951.63;4867740;28;119116;-72
2022/09/13 08:52:52;;;;;;;27.10;18.20;;;;;;;26.11;51.29;100960.13;4867848;28;117601;-72
2022/09/13 08:55:28;;;;;;;24.10;18.13;;;;;;;26.18;51.66;100949.44;4868027;28;123977;-72
2022/09/13 08:58:18;;;;;;;24.48;18.27;;;;;;;26.25;51.51;100960.47;4868118;28;123961;-73
2022/09/13 09:00:53;;;;;;;20.15;14.20;;;;;;;26.30;51.39;100958.09;4872210;28;120079;-72
2022/09/13 09:03:33;;;;;;;22.63;15.75;;;;;;;26.35;51.56;100961.13;4860359;28;119511;-72
2022/09/13 09:06:00;;;;;;;23.77;15.65;;;;;;;26.41;51.16;100960.47;4871791;28;123057;-72
2022/09/13 09:08:37;;;;;;;20.38;15.10;;;;;;;26.42;51.30;100967.59;4884944;28;123988;-73
2022/09/13 09:11:19;;;;;;;23.58;16.80;;;;;;;26.43;51.33;100969.31;4887905;28;119135;-73
2022/09/13 09:13:56;;;;;;;26.00;17.27;;;;;;;26.45;51.04;100961.84;4875306;28;117844;-72
2022/09/13 09:16:32;;;;;;;25.98;18.67;;;;;;;26.47;50.95;100954.38;4872974;28;123702;-73
2022/09/13 09:19:11;;;;;;;27.25;18.75;;;;;;;26.52;51.07;100952.00;4886458;28;124877;-72
2022/09/13 09:21:40;;;;;;;24.10;17.75;;;;;;;26.59;51.10;100947.56;4864679;28;119028;-72
2022/09/13 09:24:31;;;;;;;24.58;17.35;;;;;;;26.66;51.14;100947.75;4891611;28;118793;-72
2022/09/13 09:27:01;;;;;;;24.83;17.08;;;;;;;26.74;51.10;100949.59;4868431;28;123454;-72
2022/09/13 09:29:31;;;;;;;24.23;16.77;;;;;;;26.77;50.83;100949.28;4869420;28;123994;-73
2022/09/13 09:32:21;;;;;;;23.35;17.10;;;;;;;26.80;50.81;100943.47;4870808;28;120181;-72
2022/09/13 09:35:13;;;;;;;22.05;15.65;;;;;;;26.84;50.81;100944.81;4880559;28;119778;-72
2022/09/13 09:37:42;;;;;;;21.23;14.00;;;;;;;26.88;50.60;100946.19;4884390;28;124074;-72
2022/09/13 09:40:12;;;;;;;18.45;13.18;;;;;;;26.95;50.50;100941.72;4869493;28;122925;-72
2022/09/13 09:42:48;;;;;;;16.92;12.70;;;;;;;27.01;50.82;100934.75;4872017;28;119302;-72
2022/09/13 09:45:33;;;;;;;20.88;14.25;;;;;;;27.09;51.10;100939.34;4869581;28;119002;-73
2022/09/13 09:48:08;;;;;;;17.48;12.65;;;;;;;27.20;50.82;100938.97;4858499;28;124280;-73
2022/09/13 09:50:41;;;;;;;34.13;14.27;;;;;;;27.29;50.53;100939.78;4882644;28;123631;-72
2022/09/13 09:53:23;;;;;;;46.05;16.67;;;;;;;27.34;50.71;100934.66;4871108;28;118356;-72
2022/09/13 09:56:22;;;;;;;42.38;15.88;;;;;;;27.42;50.58;100936.50;4868982;28;118579;-73
2022/09/13 09:58:50;;;;;;;18.30;13.00;;;;;;;27.51;50.08;100943.59;4883914;28;122365;-73
2022/09/13 10:01:37;;;;;;;20.75;12.80;;;;;;;27.54;50.16;100941.38;4872865;28;124495;-72
2022/09/13 10:04:20;;;;;;;17.33;13.45;;;;;;;27.58;49.90;100940.00;4884770;28;118961;-72
2022/09/13 10:06:51;;;;;;;17.77;13.13;;;;;;;27.64;49.91;100941.16;4880270;28;119692;-72
2022/09/13 10:09:25;;;;;;;17.27;12.00;;;;;;;27.66;49.49;100933.66;4881186;28;122778;-71
2022/09/13 10:11:55;;;;;;;16.65;12.20;;;;;;;27.64;49.37;100943.88;4890293;28;123853;-72
2022/09/13 10:14:44;;;;;;;18.75;12.27;;;;;;;27.63;49.56;100944.88;4889037;28;118936;-73
2022/09/13 10:17:20;;;;;;;17.88;12.68;;;;;;;27.59;49.77;100932.66;4888115;28;119139;-73
2022/09/13 10:20:00;;;;;;;16.92;11.57;;;;;;;27.57;49.44;100940.16;4878160;28;124324;-72
2022/09/13 10:22:29;;;;;;;17.42;10.70;;;;;;;27.58;49.30;100933.72;4869058;28;123718;-72
2022/09/13 10:25:30;;;;;;;13.82;10.02;;;;;;;27.54;49.85;100937.81;4875042;28;120220;-71
2022/09/13 10:27:59;;;;;;;15.23;9.85;;;;;;;27.57;49.83;100934.72;4832561;28;119084;-72
2022/09/13 10:30:31;;;;;;;11.98;9.27;;;;;;;27.60;49.31;100928.94;4891383;28;123861;-71
2022/09/13 10:32:59;;;;;;;10.48;8.60;;;;;;;27.67;49.78;100929.91;4873591;28;123649;-72
2022/09/13 10:35:26;;;;;;;10.05;7.93;;;;;;;27.72;49.39;100924.75;4867851;28;118286;-72
2022/09/13 10:37:53;;;;;;;9.85;7.50;;;;;;;27.76;49.07;100923.41;4873399;28;119288;-71
2022/09/13 10:40:32;;;;;;;10.05;7.03;;;;;;;27.77;49.04;100925.06;4874105;28;124311;-71
2022/09/13 10:43:03;;;;;;;9.82;7.55;;;;;;;27.82;49.13;100918.22;4870464;28;125837;-72
2022/09/13 10:45:31;;;;;;;11.35;8.10;;;;;;;27.87;48.74;100918.56;4871097;28;120301;-72
2022/09/13 10:48:09;;;;;;;8.85;7.18;;;;;;;27.90;49.48;100918.22;4872159;28;118984;-71
2022/09/13 10:50:36;;;;;;;9.82;7.40;;;;;;;27.97;49.21;100916.44;4889602;28;123797;-72
2022/09/13 10:53:04;;;;;;;10.40;7.55;;;;;;;28.06;49.30;100912.63;4867102;28;124984;-72
2022/09/13 10:55:37;;;;;;;12.05;7.15;;;;;;;28.15;48.68;100910.72;4870886;28;119235;-72
2022/09/13 10:58:04;;;;;;;8.48;6.75;;;;;;;28.21;49.02;100914.56;4872908;28;119339;-72
2022/09/13 11:00:43;;;;;;;7.82;5.55;;;;;;;28.22;48.18;100905.34;4880627;28;124594;-71
2022/09/13 11:03:39;;;;;;;6.60;5.38;;;;;;;28.20;48.24;100908.28;4869677;28;124276;-72
2022/09/13 11:06:16;;;;;;;7.13;5.40;;;;;;;28.19;48.08;100912.03;4884961;28;119353;-71
2022/09/13 11:08:59;;;;;;;7.22;5.50;;;;;;;28.20;48.09;100912.88;4884357;28;117886;-72
2022/09/13 11:11:40;;;;;;;7.28;5.05;;;;;;;28.22;48.02;100916.25;4869354;28;123775;-71
2022/09/13 11:14:44;;;;;;;6.28;5.07;;;;;;;28.26;48.06;100912.16;4869548;28;123696;-70
2022/09/13 11:17:29;;;;;;;9.15;5.88;;;;;;;28.29;48.21;100911.78;4873428;28;121184;-71
2022/09/13 11:20:05;;;;;;;7.37;5.87;;;;;;;28.31;48.04;100909.72;4877803;28;119602;-72
2022/09/13 11:22:39;;;;;;;7.72;6.32;;;;;;;28.32;47.79;100903.25;4886614;28;125070;-71
2022/09/13 11:25:32;;;;;;;11.30;6.63;;;;;;;28.31;47.89;100906.97;4889204;28;123866;-71
2022/09/13 11:28:31;;;;;;;8.65;7.13;;;;;;;28.26;47.94;100901.25;4879608;28;119640;-71
2022/09/13 11:31:10;;;;;;;10.45;7.60;;;;;;;28.22;47.78;100903.50;4882172;28;118535;-71
2022/09/13 11:33:46;;;;;;;10.00;7.20;;;;;;;28.19;48.16;100898.41;4867724;28;123437;-71
2022/09/13 11:36:48;;;;;;;9.65;8.02;;;;;;;28.14;48.04;100892.66;4882874;28;123776;-71
2022/09/13 11:39:27;;;;;;;10.63;7.55;;;;;;;28.10;48.21;100886.72;4852444;28;119760;-71
2022/09/13 11:42:00;;;;;;;9.95;7.30;;;;;;;28.08;48.16;100882.50;4869806;28;118305;-70